Time;durP1;ratioP1;P1;durP2;ratioP2;P2;SDS_P1;SDS_P2;PMS_P1;PMS_P2;Temp;Humidity;BMP_temperature;BMP_pressure;BME280_temperature;BME280_humidity;BME280_pressure;Samples;Min_cycle;Max_cycle;Signal;HPM_P1;HPM_P2
2021/12/30 00:00:39;;;;;;;4.37;3.97;;;;;;;8.81;100.00;99710.06;5092023;28;20177;-76
2021/12/30 00:03:05;;;;;;;2.10;1.90;;;;;;;8.85;100.00;99702.88;5092104;28;20170;-74
2021/12/30 00:05:31;;;;;;;3.47;3.17;;;;;;;8.91;100.00;99750.63;5092012;28;20181;-75
2021/12/30 00:07:57;;;;;;;3.03;2.57;;;;;;;8.92;100.00;99714.09;5092112;28;20178;-75
2021/12/30 00:10:22;;;;;;;3.13;2.90;;;;;;;8.96;100.00;99760.56;5092383;28;20298;-75
2021/12/30 00:12:47;;;;;;;2.60;2.40;;;;;;;8.99;100.00;99764.59;5092155;28;20532;-76
2021/12/30 00:15:13;;;;;;;6.33;3.70;;;;;;;9.04;100.00;99769.88;5091884;28;20166;-75
2021/12/30 00:17:38;;;;;;;2.17;2.07;;;;;;;9.14;100.00;99777.78;5091967;28;20462;-75
2021/12/30 00:20:06;;;;;;;4.80;2.77;;;;;;;9.24;100.00;99785.63;5091650;28;20284;-75
2021/12/30 00:22:32;;;;;;;3.80;2.50;;;;;;;9.28;100.00;99770.25;5092101;28;20679;-74
2021/12/30 00:24:57;;;;;;;2.10;1.90;;;;;;;9.32;100.00;99801.19;5091615;28;20224;-75
2021/12/30 00:27:23;;;;;;;4.07;3.70;;;;;;;9.41;100.00;99801.22;5091665;28;20256;-76
2021/12/30 00:29:48;;;;;;;2.50;2.40;;;;;;;9.42;100.00;99822.72;5091777;28;20334;-75
2021/12/30 00:32:14;;;;;;;4.40;3.63;;;;;;;9.42;100.00;99783.75;5091536;28;20170;-75
2021/12/30 00:34:39;;;;;;;5.23;3.50;;;;;;;9.48;100.00;99826.88;5091720;28;20170;-75
2021/12/30 00:37:04;;;;;;;2.73;2.53;;;;;;;9.49;100.00;99817.56;5091906;28;20265;-75
2021/12/30 00:39:30;;;;;;;2.93;2.63;;;;;;;9.51;100.00;99826.22;5091428;28;20208;-75
2021/12/30 00:41:55;;;;;;;2.83;2.60;;;;;;;9.57;100.00;99813.25;5088367;28;20182;-75
2021/12/30 00:44:20;;;;;;;4.67;4.27;;;;;;;9.64;100.00;99788.22;5091646;28;20204;-75
2021/12/30 00:46:46;;;;;;;3.80;2.67;;;;;;;9.68;100.00;99825.44;5091382;28;20536;-77
2021/12/30 00:49:13;;;;;;;4.43;4.10;;;;;;;9.72;100.00;99833.81;5091480;28;20177;-74
2021/12/30 00:51:38;;;;;;;4.57;4.27;;;;;;;9.73;100.00;99847.13;5091700;28;20598;-74
2021/12/30 00:54:04;;;;;;;4.17;3.43;;;;;;;9.77;100.00;99826.25;5091365;28;20268;-77
2021/12/30 00:56:29;;;;;;;3.93;3.07;;;;;;;9.81;100.00;99829.94;5091114;28;20174;-76
2021/12/30 00:58:55;;;;;;;2.87;2.47;;;;;;;9.83;100.00;99884.19;5091189;28;20202;-75
2021/12/30 01:01:20;;;;;;;6.33;5.73;;;;;;;9.82;100.00;99879.84;5091352;28;20174;-75
2021/12/30 01:03:46;;;;;;;3.70;3.10;;;;;;;9.85;100.00;99890.16;5091239;28;20181;-76
2021/12/30 01:06:11;;;;;;;4.00;3.70;;;;;;;9.88;100.00;99862.22;5090457;28;20207;-76
2021/12/30 01:08:38;;;;;;;7.03;4.40;;;;;;;9.87;100.00;99898.81;5091244;28;20162;-75
2021/12/30 01:11:07;;;;;;;1.60;1.50;;;;;;;9.89;100.00;99899.28;5091087;28;20248;-76
2021/12/30 01:13:38;;;;;;;5.87;5.20;;;;;;;9.88;100.00;99873.13;5070910;28;20178;-76
2021/12/30 01:16:05;;;;;;;3.80;3.47;;;;;;;9.88;100.00;99910.53;5071012;28;20198;-76
2021/12/30 01:18:54;;;;;;;12.77;6.50;;;;;;;9.86;100.00;99902.66;5070876;28;20208;-76
2021/12/30 01:21:19;;;;;;;5.23;3.63;;;;;;;9.87;100.00;99901.53;5070775;28;20213;-76
2021/12/30 01:23:45;;;;;;;8.20;4.80;;;;;;;9.92;100.00;99936.03;5071003;28;20476;-75
2021/12/30 01:26:10;;;;;;;6.07;3.03;;;;;;;9.90;100.00;99941.00;5070692;28;20248;-76
2021/12/30 01:28:35;;;;;;;7.73;4.17;;;;;;;9.92;100.00;99920.47;5070670;28;20491;-77
2021/12/30 01:31:02;;;;;;;3.37;2.83;;;;;;;9.98;100.00;99938.31;5070599;28;20189;-75
2021/12/30 01:33:27;;;;;;;4.60;4.00;;;;;;;9.97;100.00;99914.03;5070753;28;20170;-76
2021/12/30 01:35:53;;;;;;;2.37;1.93;;;;;;;10.01;100.00;99885.81;5070578;28;20170;-76
2021/12/30 01:38:18;;;;;;;2.97;2.77;;;;;;;10.03;100.00;99918.22;5070668;28;20662;-76
2021/12/30 01:40:47;;;;;;;3.53;2.60;;;;;;;10.05;100.00;99881.31;5086239;28;20178;-76
2021/12/30 01:43:13;;;;;;;4.70;4.20;;;;;;;10.10;100.00;99934.91;5070686;28;20580;-78
2021/12/30 01:45:41;;;;;;;2.13;2.00;;;;;;;10.13;100.00;99954.22;5070453;28;20166;-76
2021/12/30 01:48:06;;;;;;;4.80;3.57;;;;;;;10.16;100.00;99932.84;5070796;28;20169;-77
2021/12/30 01:50:33;;;;;;;9.43;4.63;;;;;;;10.15;100.00;99937.50;5070628;28;20166;-75
2021/12/30 01:53:02;;;;;;;9.60;4.03;;;;;;;10.18;100.00;99916.94;5070666;28;20171;-76
2021/12/30 01:55:27;;;;;;;4.90;4.60;;;;;;;10.24;100.00;99908.28;5070664;28;20568;-79
2021/12/30 01:57:52;;;;;;;3.53;3.23;;;;;;;10.27;100.00;99932.25;5073160;28;20174;-78
2021/12/30 02:00:21;;;;;;;4.27;2.77;;;;;;;10.25;100.00;99937.19;5071764;28;20540;-79
2021/12/30 02:02:47;;;;;;;4.43;4.07;;;;;;;10.25;100.00;99958.25;5103166;28;20170;-79
2021/12/30 02:05:12;;;;;;;3.43;3.13;;;;;;;10.25;100.00;99978.16;5070704;28;20232;-79
2021/12/30 02:07:38;;;;;;;4.40;3.63;;;;;;;10.25;100.00;99967.22;5070525;28;20174;-77
2021/12/30 02:10:06;;;;;;;2.13;1.93;;;;;;;10.22;100.00;99964.34;5070273;28;20655;-77
2021/12/30 02:12:33;;;;;;;4.97;2.70;;;;;;;10.25;100.00;99999.19;5070393;28;20167;-78
2021/12/30 02:14:59;;;;;;;3.83;2.87;;;;;;;10.24;100.00;100003.84;5070248;28;20207;-79
2021/12/30 02:17:25;;;;;;;3.67;2.43;;;;;;;10.19;100.00;100000.44;5070821;28;20263;-78
2021/12/30 02:19:55;;;;;;;12.37;6.67;;;;;;;10.15;100.00;100005.75;5074311;28;20210;-78
2021/12/30 02:22:20;;;;;;;9.70;4.63;;;;;;;10.13;100.00;100008.81;5082937;28;20184;-76
2021/12/30 02:24:46;;;;;;;7.73;5.10;;;;;;;10.07;100.00;100025.63;5094528;28;20252;-76
2021/12/30 02:27:12;;;;;;;5.27;4.77;;;;;;;10.02;100.00;100033.97;5094106;28;20235;-76
2021/12/30 02:29:37;;;;;;;3.60;3.27;;;;;;;10.03;100.00;100041.03;5094080;28;20177;-78
2021/12/30 02:32:05;;;;;;;3.20;2.80;;;;;;;10.09;100.00;100053.41;5094275;28;20181;-77
2021/12/30 02:34:30;;;;;;;2.07;1.87;;;;;;;10.14;100.00;100056.81;5094190;28;20214;-77
2021/12/30 02:36:56;;;;;;;5.23;3.93;;;;;;;10.22;100.00;100062.63;5091807;28;20274;-76
2021/12/30 02:39:23;;;;;;;8.90;2.83;;;;;;;10.28;100.00;100075.03;5093516;28;20209;-75
2021/12/30 02:41:50;;;;;;;4.23;3.03;;;;;;;10.29;100.00;100063.78;5093726;28;20173;-78
2021/12/30 02:44:16;;;;;;;2.37;1.50;;;;;;;10.30;100.00;100059.13;5078172;28;20182;-77
2021/12/30 02:46:42;;;;;;;11.13;2.97;;;;;;;10.27;100.00;100048.81;5093954;28;20174;-76
2021/12/30 02:49:07;;;;;;;1.73;1.57;;;;;;;10.29;100.00;100049.31;5093559;28;20697;-75
2021/12/30 02:51:34;;;;;;;4.17;3.70;;;;;;;10.31;100.00;100045.16;5093684;28;20694;-76
2021/12/30 02:54:00;;;;;;;5.80;3.87;;;;;;;10.33;100.00;100078.41;5093543;28;20676;-76
2021/12/30 02:56:26;;;;;;;3.67;3.20;;;;;;;10.31;100.00;100071.66;5093561;28;20175;-77
2021/12/30 02:58:52;;;;;;;6.87;2.63;;;;;;;10.25;100.00;100079.16;5093407;28;20581;-76
2021/12/30 03:01:27;;;;;;;3.70;3.40;;;;;;;10.23;100.00;100075.16;5093525;28;20170;-77
2021/12/30 03:03:52;;;;;;;11.57;3.03;;;;;;;10.23;100.00;100056.84;5093404;28;20219;-77
2021/12/30 03:06:18;;;;;;;2.20;1.77;;;;;;;10.24;100.00;100074.03;5093174;28;20174;-77
2021/12/30 03:08:45;;;;;;;6.50;3.97;;;;;;;10.26;100.00;100064.41;5093183;28;20625;-76
2021/12/30 03:11:10;;;;;;;6.00;1.83;;;;;;;10.26;100.00;100069.06;5093280;28;20173;-78
2021/12/30 03:13:41;;;;;;;4.20;3.80;;;;;;;10.27;100.00;100060.56;5093331;28;20170;-77
2021/12/30 03:16:19;;;;;;;10.00;4.33;;;;;;;10.25;100.00;100070.19;5093411;28;20201;-75
2021/12/30 03:18:46;;;;;;;8.73;3.63;;;;;;;10.20;100.00;100079.31;5093154;28;20262;-77
2021/12/30 03:21:13;;;;;;;15.10;4.47;;;;;;;10.18;100.00;100092.47;5092933;28;20247;-77
2021/12/30 03:23:39;;;;;;;9.07;4.47;;;;;;;10.13;100.00;100081.72;5093184;28;20248;-76
2021/12/30 03:26:06;;;;;;;6.60;3.80;;;;;;;10.07;100.00;100083.75;5092956;28;20187;-76
2021/12/30 03:28:31;;;;;;;11.47;3.40;;;;;;;10.04;100.00;100069.94;5092946;28;20174;-76
2021/12/30 03:30:58;;;;;;;5.33;3.17;;;;;;;10.02;100.00;100075.72;5092240;28;20178;-77
2021/12/30 03:33:28;;;;;;;2.67;1.77;;;;;;;10.03;100.00;100085.53;5092759;28;20249;-77
2021/12/30 03:35:54;;;;;;;6.37;4.67;;;;;;;10.03;100.00;100093.72;5092436;28;20197;-77
2021/12/30 03:38:19;;;;;;;6.30;3.33;;;;;;;9.97;100.00;100100.41;5092717;28;20260;-77
2021/12/30 03:40:45;;;;;;;6.10;3.07;;;;;;;9.95;100.00;100118.22;5093134;28;20193;-75
2021/12/30 03:43:10;;;;;;;5.93;3.67;;;;;;;9.89;100.00;100120.31;5092834;28;20178;-77
2021/12/30 03:45:35;;;;;;;13.97;2.60;;;;;;;9.86;100.00;100120.94;5092858;28;20173;-77
2021/12/30 03:48:01;;;;;;;5.73;3.27;;;;;;;9.85;100.00;100127.50;5092587;28;20200;-76
2021/12/30 03:50:29;;;;;;;7.37;3.20;;;;;;;9.84;100.00;100140.34;5092545;28;20205;-76
2021/12/30 03:52:57;;;;;;;4.57;1.83;;;;;;;9.86;100.00;100145.50;5092509;28;20200;-76
2021/12/30 03:55:23;;;;;;;8.93;3.63;;;;;;;9.88;100.00;100147.91;5092351;28;20181;-76
2021/12/30 03:57:51;;;;;;;3.73;2.23;;;;;;;9.87;100.00;100160.75;5092581;28;20181;-76
2021/12/30 04:00:17;;;;;;;7.77;1.80;;;;;;;9.92;100.00;100184.34;5092264;28;20202;-77
2021/12/30 04:02:42;;;;;;;13.07;4.90;;;;;;;9.97;100.00;100182.28;5092890;28;20315;-76
2021/12/30 04:05:08;;;;;;;14.83;6.63;;;;;;;10.01;100.00;100187.94;5092340;28;20660;-77
2021/12/30 04:07:34;;;;;;;13.17;4.40;;;;;;;10.09;100.00;100185.25;5091038;28;20174;-77
2021/12/30 04:09:59;;;;;;;4.20;2.80;;;;;;;10.12;100.00;100178.34;5093573;28;20186;-77
2021/12/30 04:12:25;;;;;;;1.33;1.23;;;;;;;10.15;100.00;100191.38;5095761;28;20538;-76
2021/12/30 04:14:50;;;;;;;1.53;1.43;;;;;;;10.17;100.00;100204.72;5091583;28;20178;-77
2021/12/30 04:17:16;;;;;;;11.70;3.53;;;;;;;10.20;100.00;100209.53;5091992;28;20227;-79
2021/12/30 04:19:41;;;;;;;13.37;3.43;;;;;;;10.19;100.00;100210.66;5092238;28;20255;-77
2021/12/30 04:22:06;;;;;;;4.97;2.73;;;;;;;10.20;100.00;100198.63;5091837;28;20182;-78
2021/12/30 04:24:32;;;;;;;9.80;4.87;;;;;;;10.22;100.00;100199.13;5092096;28;20170;-76
2021/12/30 04:26:57;;;;;;;3.00;1.10;;;;;;;10.18;100.00;100187.22;5091720;28;20625;-76
2021/12/30 04:29:23;;;;;;;2.43;2.33;;;;;;;10.20;100.00;100191.22;5091824;28;20585;-76
2021/12/30 04:31:48;;;;;;;5.13;1.47;;;;;;;10.20;100.00;100172.13;5091722;28;20602;-76
2021/12/30 04:34:14;;;;;;;4.70;2.43;;;;;;;10.16;100.00;100171.16;5091914;28;20178;-76
2021/12/30 04:36:40;;;;;;;3.97;1.57;;;;;;;10.08;100.00;100182.81;5091862;28;20182;-76
2021/12/30 04:39:06;;;;;;;9.40;3.60;;;;;;;10.03;100.00;100177.50;5091913;28;20197;-75
2021/12/30 04:41:32;;;;;;;7.97;2.30;;;;;;;9.96;100.00;100177.94;5090579;28;20174;-76
2021/12/30 04:43:57;;;;;;;11.63;4.47;;;;;;;9.90;100.00;100162.84;5091742;28;20265;-77
2021/12/30 04:46:23;;;;;;;6.27;3.70;;;;;;;9.83;100.00;100157.00;5090092;28;20621;-77
2021/12/30 04:48:49;;;;;;;1.40;1.17;;;;;;;9.82;100.00;100164.38;5091591;28;20606;-77
2021/12/30 04:51:16;;;;;;;4.77;2.40;;;;;;;9.81;100.00;100170.16;5091537;28;20170;-77
2021/12/30 04:53:41;;;;;;;3.70;1.73;;;;;;;9.82;100.00;100158.13;5091413;28;20170;-77
2021/12/30 04:56:07;;;;;;;6.37;2.80;;;;;;;9.89;100.00;100163.16;5090966;28;20227;-76
2021/12/30 04:58:32;;;;;;;12.70;4.87;;;;;;;9.91;100.00;100150.81;5091147;28;20204;-77
2021/12/30 05:00:57;;;;;;;4.53;1.33;;;;;;;9.90;100.00;100153.84;5091392;28;20177;-76
2021/12/30 05:03:23;;;;;;;8.07;3.00;;;;;;;9.91;100.00;100139.09;5091306;28;20177;-78
2021/12/30 05:05:51;;;;;;;8.20;2.17;;;;;;;9.91;100.00;100153.53;5090976;28;20265;-77
2021/12/30 05:08:19;;;;;;;8.97;4.13;;;;;;;9.90;100.00;100159.31;5091168;28;20174;-76
2021/12/30 05:10:46;;;;;;;11.83;3.60;;;;;;;9.88;100.00;100154.16;5089474;28;20178;-75
2021/12/30 05:13:11;;;;;;;8.53;3.53;;;;;;;9.86;100.00;100153.69;5090783;28;20178;-75
2021/12/30 05:15:39;;;;;;;8.07;3.10;;;;;;;9.84;100.00;100143.09;5090721;28;20557;-76
2021/12/30 05:18:06;;;;;;;7.93;3.43;;;;;;;9.74;100.00;100131.63;5090575;28;20174;-76
2021/12/30 05:20:31;;;;;;;10.20;4.27;;;;;;;9.80;100.00;100139.34;5090890;28;20170;-76
2021/12/30 05:22:58;;;;;;;9.27;4.27;;;;;;;9.78;100.00;100141.59;5090856;28;20193;-77
2021/12/30 05:25:24;;;;;;;13.87;4.73;;;;;;;9.78;100.00;100147.03;5090651;28;20208;-76
2021/12/30 05:27:50;;;;;;;6.83;1.37;;;;;;;9.88;100.00;100161.53;5090901;28;20700;-75
2021/12/30 05:30:17;;;;;;;7.33;4.47;;;;;;;9.88;100.00;100159.63;5090906;28;20178;-77
2021/12/30 05:32:43;;;;;;;14.27;4.27;;;;;;;9.89;100.00;100169.41;5090534;28;20265;-75
2021/12/30 05:35:11;;;;;;;7.13;5.70;;;;;;;9.91;100.00;100150.81;5090598;28;20177;-76
2021/12/30 05:37:36;;;;;;;9.70;4.90;;;;;;;9.91;100.00;100150.81;5089439;28;20668;-75
2021/12/30 05:40:04;;;;;;;7.43;5.43;;;;;;;9.93;100.00;100161.41;5090973;28;20197;-77
2021/12/30 05:42:30;;;;;;;11.10;6.07;;;;;;;10.02;100.00;100157.59;5090561;28;20259;-77
2021/12/30 05:44:55;;;;;;;10.97;3.70;;;;;;;10.03;100.00;100152.94;5089234;28;20177;-77
2021/12/30 05:47:21;;;;;;;14.07;6.53;;;;;;;10.08;100.00;100122.78;5090693;28;20207;-75
2021/12/30 05:49:47;;;;;;;16.73;6.67;;;;;;;10.03;100.00;100115.53;5090658;28;20182;-76
2021/12/30 05:52:13;;;;;;;11.27;5.20;;;;;;;10.01;100.00;100112.31;5089505;28;20181;-78
2021/12/30 05:54:43;;;;;;;9.10;5.77;;;;;;;10.03;100.00;100114.75;5094542;28;20178;-77
2021/12/30 05:57:09;;;;;;;14.73;4.67;;;;;;;10.07;100.00;100121.16;5094944;28;20397;-77
2021/12/30 05:59:34;;;;;;;15.67;6.30;;;;;;;10.09;100.00;100111.53;5094775;28;20205;-75
2021/12/30 06:02:00;;;;;;;20.03;8.53;;;;;;;10.08;100.00;100139.16;5094690;28;20619;-76
2021/12/30 06:04:25;;;;;;;10.43;4.83;;;;;;;10.16;100.00;100152.03;5094468;28;20272;-76
2021/12/30 06:06:51;;;;;;;13.90;5.67;;;;;;;10.23;100.00;100143.41;5094352;28;20203;-76
2021/12/30 06:09:17;;;;;;;15.40;8.37;;;;;;;10.26;100.00;100157.22;5094516;28;20621;-76
2021/12/30 06:11:42;;;;;;;7.57;4.87;;;;;;;10.26;100.00;100156.41;5094552;28;20272;-81
2021/12/30 06:14:07;;;;;;;4.03;3.70;;;;;;;10.31;100.00;100176.22;5092040;28;20186;-77
2021/12/30 06:16:33;;;;;;;5.80;1.83;;;;;;;10.36;100.00;100164.34;5093923;28;20638;-77
2021/12/30 06:18:59;;;;;;;6.77;4.27;;;;;;;10.37;100.00;100177.66;5080736;28;20717;-77
2021/12/30 06:21:25;;;;;;;11.57;2.77;;;;;;;10.38;100.00;100190.19;5092938;28;20186;-76
2021/12/30 06:23:50;;;;;;;8.50;3.33;;;;;;;10.40;100.00;100184.41;5092029;28;20182;-76
2021/12/30 06:26:16;;;;;;;4.77;4.37;;;;;;;10.37;100.00;100188.59;5093886;28;20224;-77
2021/12/30 06:28:41;;;;;;;6.07;3.70;;;;;;;10.38;100.00;100189.41;5094376;28;20178;-77
2021/12/30 06:31:06;;;;;;;12.73;5.13;;;;;;;10.43;100.00;100183.81;5093919;28;20212;-77
2021/12/30 06:33:32;;;;;;;9.57;5.83;;;;;;;10.45;100.00;100169.84;5093853;28;20583;-77
2021/12/30 06:35:57;;;;;;;1.80;1.70;;;;;;;10.44;100.00;100174.50;5092267;28;20203;-76
2021/12/30 06:38:23;;;;;;;14.00;6.07;;;;;;;10.52;100.00;100164.69;5093752;28;20683;-77
2021/12/30 06:40:48;;;;;;;2.80;2.60;;;;;;;10.53;100.00;100179.97;5094135;28;20173;-75
2021/12/30 06:43:14;;;;;;;6.90;4.00;;;;;;;10.58;100.00;100168.91;5090373;28;20183;-77
2021/12/30 06:45:39;;;;;;;4.97;4.47;;;;;;;10.60;100.00;100161.19;5093362;28;20193;-74
2021/12/30 06:48:06;;;;;;;7.33;5.03;;;;;;;10.65;100.00;100155.56;5091207;28;20515;-77
2021/12/30 06:50:33;;;;;;;7.23;2.77;;;;;;;10.66;100.00;100154.44;5093453;28;20228;-77
2021/12/30 06:52:59;;;;;;;8.87;5.73;;;;;;;10.66;100.00;100155.25;5093748;28;20202;-75
2021/12/30 06:55:24;;;;;;;3.03;2.80;;;;;;;10.66;100.00;100146.25;5090939;28;20220;-75
2021/12/30 06:57:50;;;;;;;8.33;6.80;;;;;;;10.70;100.00;100145.31;5093692;28;20614;-76
2021/12/30 07:00:16;;;;;;;6.23;4.90;;;;;;;10.70;100.00;100145.31;5090688;28;20198;-77
2021/12/30 07:02:44;;;;;;;7.80;5.37;;;;;;;10.67;100.00;100156.84;5093700;28;20186;-76
2021/12/30 07:05:10;;;;;;;6.97;5.07;;;;;;;10.70;100.00;100158.97;5092450;28;20213;-76
2021/12/30 07:07:35;;;;;;;3.70;3.40;;;;;;;10.73;100.00;100160.25;5092139;28;20556;-76
2021/12/30 07:10:01;;;;;;;12.23;5.93;;;;;;;10.72;100.00;100156.72;5090033;28;20178;-76
2021/12/30 07:12:26;;;;;;;12.10;8.33;;;;;;;10.74;100.00;100156.41;5093315;28;20189;-77
2021/12/30 07:14:52;;;;;;;4.47;3.47;;;;;;;10.76;100.00;100164.28;5093130;28;20530;-79
2021/12/30 07:17:17;;;;;;;10.73;5.00;;;;;;;10.75;100.00;100168.94;5091206;28;20618;-80
2021/12/30 07:19:45;;;;;;;6.70;4.87;;;;;;;10.80;100.00;100170.69;5092971;28;20205;-81
2021/12/30 07:22:10;;;;;;;2.87;2.53;;;;;;;10.82;100.00;100184.84;5088516;28;20193;-84
2021/12/30 07:24:36;;;;;;;4.33;3.93;;;;;;;10.85;100.00;100186.94;5094075;28;20185;-80
2021/12/30 07:27:01;;;;;;;9.67;6.30;;;;;;;10.85;100.00;100190.50;5089641;28;20277;-76
2021/12/30 07:29:26;;;;;;;12.33;5.20;;;;;;;10.90;100.00;100197.72;5091517;28;20217;-74
2021/12/30 07:31:52;;;;;;;4.83;2.20;;;;;;;10.92;100.00;100192.75;5090919;28;20196;-74
2021/12/30 07:34:17;;;;;;;5.83;3.73;;;;;;;10.98;100.00;100183.25;5091516;28;20174;-74
2021/12/30 07:36:43;;;;;;;2.43;2.33;;;;;;;10.98;100.00;100186.00;5092761;28;20169;-73
2021/12/30 07:39:09;;;;;;;8.10;5.60;;;;;;;10.97;100.00;100166.06;5092893;28;20237;-74
2021/12/30 07:41:34;;;;;;;11.13;8.57;;;;;;;11.01;100.00;100191.66;5088476;28;20429;-76
2021/12/30 07:43:59;;;;;;;8.40;3.87;;;;;;;11.06;100.00;100182.47;5092755;28;20185;-75
2021/12/30 07:46:25;;;;;;;8.00;4.90;;;;;;;11.04;100.00;100184.72;5092867;28;20558;-74
2021/12/30 07:48:50;;;;;;;10.40;5.63;;;;;;;11.04;100.00;100198.38;5092607;28;20522;-75
2021/12/30 07:51:16;;;;;;;6.60;4.93;;;;;;;11.07;100.00;100218.81;5092802;28;20249;-74
2021/12/30 07:53:41;;;;;;;4.00;3.70;;;;;;;11.10;100.00;100221.69;5092939;28;20626;-74
2021/12/30 07:56:07;;;;;;;6.30;4.70;;;;;;;11.12;100.00;100211.25;5092406;28;20533;-74
2021/12/30 07:58:32;;;;;;;4.07;3.77;;;;;;;11.11;100.00;100204.16;5092758;28;20652;-74
2021/12/30 08:00:58;;;;;;;2.43;2.27;;;;;;;11.11;100.00;100204.16;5092414;28;20178;-74
2021/12/30 08:03:24;;;;;;;3.83;3.50;;;;;;;11.17;100.00;100191.16;5092311;28;20170;-74
2021/12/30 08:05:49;;;;;;;3.17;2.90;;;;;;;11.19;100.00;100206.13;5092131;28;20636;-75
2021/12/30 08:08:15;;;;;;;0.90;0.90;;;;;;;11.23;100.00;100196.13;5092216;28;20166;-75
2021/12/30 08:10:41;;;;;;;5.07;3.20;;;;;;;11.25;100.00;100206.75;5092166;28;20535;-75
2021/12/30 08:13:06;;;;;;;2.10;1.90;;;;;;;11.30;100.00;100212.88;5092177;28;20343;-75
2021/12/30 08:15:31;;;;;;;6.33;3.63;;;;;;;11.33;100.00;100209.50;5091866;28;20621;-75
2021/12/30 08:17:58;;;;;;;2.23;2.13;;;;;;;11.38;100.00;100210.47;5092101;28;20259;-75
2021/12/30 08:20:24;;;;;;;2.80;1.97;;;;;;;11.40;100.00;100216.41;5091986;28;20213;-74
2021/12/30 08:22:51;;;;;;;0.67;0.63;;;;;;;11.45;100.00;100211.59;5091809;28;20193;-75
2021/12/30 08:25:17;;;;;;;2.07;1.93;;;;;;;11.51;100.00;100218.50;5091590;28;20174;-74
2021/12/30 08:27:44;;;;;;;2.73;1.93;;;;;;;11.52;100.00;100214.63;5091998;28;20174;-77
2021/12/30 08:30:12;;;;;;;1.77;1.50;;;;;;;11.56;100.00;100225.72;5092055;28;20178;-75
2021/12/30 08:32:38;;;;;;;2.13;1.97;;;;;;;11.57;100.00;100209.00;5091954;28;20177;-76
2021/12/30 08:35:06;;;;;;;3.20;2.67;;;;;;;11.58;100.00;100215.28;5091491;28;20224;-76
2021/12/30 08:37:33;;;;;;;2.63;1.70;;;;;;;11.61;100.00;100214.63;5091586;28;20173;-75
2021/12/30 08:40:01;;;;;;;1.37;1.27;;;;;;;11.63;100.00;100193.22;5091429;28;20201;-76
2021/12/30 08:42:28;;;;;;;1.97;1.87;;;;;;;11.70;100.00;100220.88;5091580;28;20177;-76
2021/12/30 08:44:55;;;;;;;0.87;0.87;;;;;;;11.71;100.00;100211.53;5091193;28;20194;-77
2021/12/30 08:47:21;;;;;;;1.20;1.10;;;;;;;11.74;100.00;100190.97;5091078;28;20637;-76
2021/12/30 08:49:47;;;;;;;3.10;2.23;;;;;;;11.76;100.00;100186.75;5090949;28;20180;-76
2021/12/30 08:52:14;;;;;;;6.80;2.13;;;;;;;11.78;100.00;100179.03;5091088;28;20169;-76
2021/12/30 08:54:40;;;;;;;2.47;1.97;;;;;;;11.79;100.00;100175.19;5090777;28;20227;-77
2021/12/30 08:57:06;;;;;;;2.50;2.30;;;;;;;11.78;100.00;100178.22;5090763;28;20178;-78
2021/12/30 08:59:31;;;;;;;1.83;1.73;;;;;;;11.84;100.00;100188.69;5091425;28;20213;-77
2021/12/30 09:01:57;;;;;;;2.50;2.30;;;;;;;11.87;100.00;100209.16;5090966;28;20530;-77
2021/12/30 09:04:22;;;;;;;1.37;1.07;;;;;;;11.86;100.00;100213.00;5090749;28;20255;-77
2021/12/30 09:06:47;;;;;;;2.23;1.70;;;;;;;11.87;100.00;100209.97;5090907;28;20645;-78
2021/12/30 09:09:13;;;;;;;2.23;1.30;;;;;;;11.91;100.00;100216.38;5090737;28;20231;-77
2021/12/30 09:11:38;;;;;;;0.87;0.70;;;;;;;11.89;100.00;100212.38;5090761;28;20177;-77
2021/12/30 09:14:04;;;;;;;0.87;0.87;;;;;;;11.90;100.00;100160.03;5090928;28;20189;-78
2021/12/30 09:16:29;;;;;;;0.53;0.43;;;;;;;11.94;100.00;100242.31;5090807;28;20181;-77
2021/12/30 09:18:54;;;;;;;2.30;1.07;;;;;;;11.92;100.00;100228.13;5090582;28;20684;-77
2021/12/30 09:21:20;;;;;;;0.47;0.40;;;;;;;11.94;100.00;100234.09;5090510;28;20189;-77
2021/12/30 09:23:45;;;;;;;0.93;0.67;;;;;;;11.87;100.00;100177.09;5090626;28;20177;-77
2021/12/30 09:26:11;;;;;;;1.33;1.23;;;;;;;11.85;100.00;100234.09;5090553;28;20646;-77
2021/12/30 09:28:36;;;;;;;2.57;1.73;;;;;;;11.83;100.00;100151.50;5089923;28;20184;-77
2021/12/30 09:31:02;;;;;;;1.20;1.03;;;;;;;11.81;100.00;100183.06;5091012;28;20630;-77
2021/12/30 09:33:27;;;;;;;2.13;1.60;;;;;;;11.79;100.00;100186.13;5090236;28;20613;-77
2021/12/30 09:35:52;;;;;;;1.43;1.07;;;;;;;11.75;100.00;100174.22;5090249;28;20356;-77
2021/12/30 09:38:19;;;;;;;1.00;1.00;;;;;;;11.71;100.00;100177.91;5090421;28;20173;-76
2021/12/30 09:40:45;;;;;;;1.70;1.30;;;;;;;11.71;100.00;100191.59;5090399;28;20202;-77
2021/12/30 09:43:11;;;;;;;1.73;1.07;;;;;;;11.68;100.00;100187.56;5090209;28;20577;-77
2021/12/30 09:45:40;;;;;;;1.17;0.87;;;;;;;11.66;100.00;100200.78;5090301;28;20186;-77
2021/12/30 09:48:09;;;;;;;1.40;1.30;;;;;;;11.62;100.00;100206.09;5090573;28;20534;-77
2021/12/30 09:50:39;;;;;;;1.50;1.37;;;;;;;11.61;100.00;100212.69;5090286;28;20660;-77
2021/12/30 09:53:05;;;;;;;1.87;1.27;;;;;;;11.59;100.00;100184.88;5090825;28;20180;-77
2021/12/30 09:55:31;;;;;;;0.40;0.40;;;;;;;11.57;100.00;100189.88;5089962;28;20166;-77
2021/12/30 09:57:57;;;;;;;0.40;0.40;;;;;;;11.55;100.00;100169.41;5090145;28;20257;-77
2021/12/30 10:00:23;;;;;;;0.60;0.60;;;;;;;11.54;100.00;100178.75;5090383;28;20647;-78
2021/12/30 10:02:49;;;;;;;0.57;0.53;;;;;;;11.55;100.00;100180.34;5090330;28;20572;-77
2021/12/30 10:05:18;;;;;;;1.33;0.93;;;;;;;11.54;100.00;100192.41;5089938;28;20184;-77
2021/12/30 10:07:44;;;;;;;0.70;0.60;;;;;;;11.54;100.00;100179.53;5090315;28;20261;-77
2021/12/30 10:10:34;;;;;;;0.90;0.90;;;;;;;11.56;100.00;100201.09;5090178;28;20257;-77
2021/12/30 10:13:13;;;;;;;1.90;0.73;;;;;;;11.56;100.00;100223.00;5090165;28;20569;-77
2021/12/30 10:15:47;;;;;;;0.40;0.40;;;;;;;11.59;100.00;100225.09;5089861;28;20228;-78
2021/12/30 10:18:13;;;;;;;0.50;0.50;;;;;;;11.59;100.00;100190.34;5090427;28;20175;-77
2021/12/30 10:20:40;;;;;;;1.00;0.90;;;;;;;11.61;100.00;100184.53;5090491;28;20174;-77
2021/12/30 10:23:16;;;;;;;3.40;0.47;;;;;;;11.62;100.00;100213.50;5089867;28;20189;-77
2021/12/30 10:25:45;;;;;;;0.63;0.33;;;;;;;11.66;100.00;100203.50;5089751;28;20234;-77
2021/12/30 10:28:21;;;;;;;0.30;0.30;;;;;;;11.69;100.00;100226.69;5088564;28;20182;-77
2021/12/30 10:30:48;;;;;;;0.70;0.43;;;;;;;11.70;100.00;100203.66;5088670;28;20178;-77
2021/12/30 10:33:17;;;;;;;0.93;0.37;;;;;;;11.72;100.00;100229.59;5089904;28;20231;-77
2021/12/30 10:35:43;;;;;;;0.70;0.70;;;;;;;11.70;100.00;100222.81;5089614;28;20227;-77
2021/12/30 10:38:10;;;;;;;0.67;0.60;;;;;;;11.72;100.00;100209.63;5089902;28;20170;-77
2021/12/30 10:40:43;;;;;;;0.50;0.50;;;;;;;11.72;100.00;100212.38;5093566;28;20174;-77
2021/12/30 10:43:24;;;;;;;0.30;0.30;;;;;;;11.75;100.00;100178.88;5093279;28;20256;-77
2021/12/30 10:46:14;;;;;;;0.37;0.37;;;;;;;11.75;100.00;100187.91;5093327;28;20198;-77
2021/12/30 10:48:47;;;;;;;0.03;0.03;;;;;;;11.79;100.00;100216.25;5092183;28;20182;-77
2021/12/30 10:51:20;;;;;;;0.63;0.30;;;;;;;11.85;100.00;100176.59;5092389;28;20534;-77
2021/12/30 10:53:47;;;;;;;0.50;0.20;;;;;;;11.89;100.00;100194.00;5093372;28;20231;-76
2021/12/30 10:56:19;;;;;;;0.20;0.20;;;;;;;11.89;100.00;100174.03;5093302;28;20359;-77
2021/12/30 10:58:45;;;;;;;0.10;0.10;;;;;;;11.88;100.00;100203.34;5093100;28;20237;-77
2021/12/30 11:01:17;;;;;;;0.43;0.43;;;;;;;11.85;100.00;100170.31;5093227;28;20665;-77
2021/12/30 11:03:53;;;;;;;0.20;0.20;;;;;;;11.85;100.00;100179.34;5093112;28;20173;-77
2021/12/30 11:06:19;;;;;;;1.27;0.53;;;;;;;11.86;100.00;100180.16;5092835;28;20534;-77
2021/12/30 11:08:47;;;;;;;0.33;0.20;;;;;;;11.90;100.00;100194.81;5093127;28;20184;-76
2021/12/30 11:11:27;;;;;;;0.40;0.30;;;;;;;11.96;100.00;100163.38;5091791;28;20238;-78
2021/12/30 11:14:04;;;;;;;0.83;0.77;;;;;;;12.03;100.00;100177.38;5092945;28;20262;-77
2021/12/30 11:16:30;;;;;;;0.60;0.60;;;;;;;12.09;100.00;100156.88;5092635;28;20173;-77